createdAt,value
2017-12-04T00:00:51.307Z,5.20
2017-12-04T00:01:53.868Z,5.20
2017-12-04T00:02:56.633Z,5.20
2017-12-04T00:03:59.164Z,5.30
2017-12-04T00:05:02.497Z,5.20
2017-12-04T00:06:05.066Z,5.20
2017-12-04T00:07:08.752Z,5.20
2017-12-04T00:08:11.337Z,5.20
2017-12-04T00:09:14.090Z,5.20
2017-12-04T00:10:16.654Z,5.20
2017-12-04T00:11:19.385Z,5.20
2017-12-04T00:12:22.694Z,5.20
2017-12-04T00:13:25.682Z,5.20
2017-12-04T00:14:28.226Z,5.30
2017-12-04T00:15:31.645Z,5.30
2017-12-04T00:16:34.202Z,5.30
2017-12-04T00:17:36.989Z,5.30
2017-12-04T00:18:39.542Z,5.20
2017-12-04T00:19:42.305Z,5.20
2017-12-04T00:20:44.904Z,5.20
2017-12-04T00:21:47.628Z,5.30
2017-12-04T00:22:50.949Z,5.30
2017-12-04T00:23:53.596Z,5.30
2017-12-04T00:24:56.183Z,5.30
2017-12-04T00:25:59.843Z,5.30
2017-12-04T00:27:03.150Z,5.30
2017-12-04T00:28:05.815Z,5.30
2017-12-04T00:29:08.381Z,5.30
2017-12-04T00:30:11.154Z,5.20
2017-12-04T00:31:13.726Z,5.20
2017-12-04T00:32:16.478Z,5.30
2017-12-04T00:33:19.050Z,5.30
2017-12-04T00:34:21.832Z,5.30
2017-12-04T00:35:24.736Z,5.20
2017-12-04T00:36:27.488Z,5.30
2017-12-04T00:37:30.041Z,5.20
2017-12-04T00:38:32.802Z,5.20
2017-12-04T00:39:36.108Z,5.30
2017-12-04T00:40:38.740Z,5.30
2017-12-04T00:41:42.077Z,5.30
2017-12-04T00:42:45.747Z,5.30
2017-12-04T00:43:48.306Z,5.30
2017-12-04T00:44:50.954Z,5.30
2017-12-04T00:45:54.266Z,5.30
2017-12-04T00:46:57.036Z,5.20
2017-12-04T00:47:59.604Z,5.30
2017-12-04T00:49:02.268Z,5.30
2017-12-04T00:50:04.813Z,5.30
2017-12-04T00:51:08.415Z,5.30
2017-12-04T00:52:11.811Z,5.30
2017-12-04T00:53:14.476Z,5.30
2017-12-04T00:54:17.058Z,5.30
2017-12-04T00:55:19.832Z,5.30
2017-12-04T00:56:22.509Z,5.30
2017-12-04T00:57:25.797Z,5.30
2017-12-04T00:58:28.435Z,5.30
2017-12-04T00:59:31.735Z,5.30
2017-12-04T01:00:34.265Z,5.30
2017-12-04T01:01:37.661Z,5.20
2017-12-04T01:02:40.982Z,5.10
2017-12-04T01:03:43.639Z,5.10
2017-12-04T01:04:46.191Z,5.10
2017-12-04T01:05:48.956Z,5.10
2017-12-04T01:06:52.266Z,5.10
2017-12-04T01:07:54.973Z,5.10
2017-12-04T01:08:58.336Z,5.20
2017-12-04T01:10:00.889Z,5.10
2017-12-04T01:11:03.432Z,5.20
2017-12-04T01:12:06.844Z,5.20
2017-12-04T01:13:09.462Z,5.20
2017-12-04T01:14:12.158Z,5.20
2017-12-04T01:15:15.474Z,5.30
2017-12-04T01:16:18.233Z,5.30
2017-12-04T01:17:20.781Z,5.30
2017-12-04T01:18:23.783Z,5.30
2017-12-04T01:19:26.595Z,5.30
2017-12-04T01:20:29.192Z,5.40
2017-12-04T01:21:32.909Z,5.40
2017-12-04T01:22:35.774Z,5.40
2017-12-04T01:23:38.306Z,5.40
2017-12-04T01:24:41.119Z,5.40
2017-12-04T01:25:43.652Z,5.40
2017-12-04T01:26:47.080Z,5.40
2017-12-04T01:27:49.640Z,5.40
2017-12-04T01:28:53.310Z,5.40
2017-12-04T01:29:56.605Z,5.40
2017-12-04T01:30:59.317Z,5.40
2017-12-04T01:32:01.853Z,5.40
2017-12-04T01:33:04.829Z,5.40
2017-12-04T01:34:08.198Z,5.50
2017-12-04T01:35:11.807Z,5.40
2017-12-04T01:36:14.680Z,5.40
2017-12-04T01:37:17.440Z,5.40
2017-12-04T01:38:19.988Z,5.50
2017-12-04T01:39:23.388Z,5.50
2017-12-04T01:40:26.671Z,5.50
2017-12-04T01:41:29.364Z,5.50
2017-12-04T01:42:31.908Z,5.50
2017-12-04T01:43:35.413Z,5.50
2017-12-04T01:44:37.993Z,5.50
2017-12-04T01:45:40.555Z,5.50
2017-12-04T01:46:43.118Z,5.50
2017-12-04T01:47:46.018Z,5.50
2017-12-04T01:48:48.659Z,5.50
2017-12-04T01:49:51.308Z,5.50
2017-12-04T01:50:54.175Z,5.50
2017-12-04T01:51:57.565Z,5.50
2017-12-04T01:53:00.875Z,5.50
2017-12-04T01:54:03.515Z,5.50
2017-12-04T01:55:07.084Z,5.50
2017-12-04T01:56:10.828Z,5.50
2017-12-04T01:57:13.415Z,5.50
2017-12-04T01:58:16.045Z,5.50
2017-12-04T01:59:18.637Z,5.50
2017-12-04T02:00:21.394Z,5.50
2017-12-04T02:01:23.942Z,5.50
2017-12-04T02:02:28.621Z,5.40
2017-12-04T02:03:31.165Z,5.40
2017-12-04T02:04:34.867Z,5.50
2017-12-04T02:05:37.412Z,5.50
2017-12-04T02:06:41.996Z,5.50
2017-12-04T02:07:45.326Z,5.50
2017-12-04T02:08:48.144Z,5.40
2017-12-04T02:09:51.470Z,5.40
2017-12-04T02:10:58.198Z,5.40
2017-12-04T02:12:01.493Z,5.40
2017-12-04T02:13:06.273Z,5.40
2017-12-04T02:14:09.725Z,5.40
2017-12-04T02:15:12.670Z,5.40
2017-12-04T02:16:15.228Z,5.40
2017-12-04T02:17:18.893Z,5.40
2017-12-04T02:18:21.443Z,5.40
2017-12-04T02:19:25.142Z,5.40
2017-12-04T02:20:27.684Z,5.40
2017-12-04T02:21:30.431Z,5.40
2017-12-04T02:22:33.756Z,5.40
2017-12-04T02:23:37.617Z,5.40
2017-12-04T02:24:40.937Z,5.40
2017-12-04T02:25:43.586Z,5.40
2017-12-04T02:26:46.123Z,5.40
2017-12-04T02:27:49.522Z,5.40
2017-12-04T02:28:52.820Z,5.40
2017-12-04T02:29:55.475Z,5.40
2017-12-04T02:30:58.760Z,5.40
2017-12-04T02:32:02.411Z,5.40
2017-12-04T02:33:04.945Z,5.30
2017-12-04T02:34:07.704Z,5.40
2017-12-04T02:35:10.421Z,5.40
2017-12-04T02:36:13.949Z,5.40
2017-12-04T02:37:16.631Z,5.40
2017-12-04T02:38:19.299Z,5.40
2017-12-04T02:39:21.842Z,5.40
2017-12-04T02:40:25.365Z,5.40
2017-12-04T02:41:27.910Z,5.40
2017-12-04T02:42:31.502Z,5.40
2017-12-04T02:43:34.052Z,5.40
2017-12-04T02:44:37.480Z,5.40
2017-12-04T02:45:40.036Z,5.30
2017-12-04T02:46:43.734Z,5.40
2017-12-04T02:47:46.281Z,5.40
2017-12-04T02:48:49.676Z,5.40
2017-12-04T02:49:52.209Z,5.40
2017-12-04T02:51:00.248Z,5.40
2017-12-04T02:52:02.820Z,5.40
2017-12-04T02:53:05.592Z,5.40
2017-12-04T02:54:08.366Z,5.40
2017-12-04T02:55:11.239Z,5.40
2017-12-04T02:56:14.988Z,5.40
2017-12-04T02:57:19.601Z,5.40
2017-12-04T02:58:22.140Z,5.40
2017-12-04T02:59:25.734Z,5.40
2017-12-04T03:00:28.264Z,5.40
2017-12-04T03:01:30.912Z,5.40
2017-12-04T03:02:33.468Z,5.40
2017-12-04T03:03:36.870Z,5.40
2017-12-04T03:04:39.429Z,5.40
2017-12-04T03:05:42.837Z,5.40
2017-12-04T03:06:45.388Z,5.40
2017-12-04T03:07:48.787Z,5.50
2017-12-04T03:08:51.310Z,5.50
2017-12-04T03:09:54.137Z,5.50
2017-12-04T03:10:56.683Z,5.50
2017-12-04T03:11:59.581Z,5.50
2017-12-04T03:13:02.129Z,5.50
2017-12-04T03:14:04.788Z,5.40
2017-12-04T03:15:08.403Z,5.40
2017-12-04T03:16:11.096Z,5.40
2017-12-04T03:17:13.622Z,5.40
2017-12-04T03:18:16.892Z,5.40
2017-12-04T03:19:20.189Z,5.50
2017-12-04T03:20:23.878Z,5.50
2017-12-04T03:21:26.423Z,5.50
2017-12-04T03:22:29.840Z,5.50
2017-12-04T03:23:32.383Z,5.50
2017-12-04T03:24:35.697Z,5.60
2017-12-04T03:25:38.222Z,5.60
2017-12-04T03:26:40.864Z,5.60
2017-12-04T03:27:43.404Z,5.60
2017-12-04T03:28:46.148Z,5.60
2017-12-04T03:29:49.453Z,5.60
2017-12-04T03:30:52.099Z,5.60
2017-12-04T03:31:55.443Z,5.60
2017-12-04T03:32:57.997Z,5.60
2017-12-04T03:34:00.694Z,5.60
2017-12-04T03:35:03.393Z,5.60
2017-12-04T03:36:06.682Z,5.60
2017-12-04T03:37:10.529Z,5.60
2017-12-04T03:38:13.078Z,5.60
2017-12-04T03:39:16.853Z,5.70
2017-12-04T03:40:19.393Z,5.70
2017-12-04T03:41:22.809Z,5.70
2017-12-04T03:42:25.428Z,5.70
2017-12-04T03:43:29.108Z,5.70
2017-12-04T03:44:31.655Z,5.70
2017-12-04T03:45:35.308Z,5.70
2017-12-04T03:46:37.852Z,5.70
2017-12-04T03:47:40.662Z,5.60
2017-12-04T03:48:43.226Z,5.60
2017-12-04T03:49:46.003Z,5.60
2017-12-04T03:50:48.525Z,5.60
2017-12-04T03:51:51.324Z,5.60
2017-12-04T03:52:54.627Z,5.60
2017-12-04T03:53:57.286Z,5.60
2017-12-04T03:54:59.849Z,5.60
2017-12-04T03:56:03.263Z,5.60
2017-12-04T03:57:05.896Z,5.60
2017-12-04T03:58:09.514Z,5.60
2017-12-04T03:59:12.136Z,5.60
2017-12-04T04:00:15.884Z,5.60
2017-12-04T04:01:18.407Z,5.60
2017-12-04T04:02:22.972Z,5.60
2017-12-04T04:03:25.528Z,5.60
2017-12-04T04:04:28.275Z,5.60
2017-12-04T04:05:30.830Z,5.60
2017-12-04T04:06:34.229Z,5.60
2017-12-04T04:07:36.771Z,5.60
2017-12-04T04:08:40.213Z,5.60
2017-12-04T04:09:42.758Z,5.60
2017-12-04T04:10:46.852Z,5.60
2017-12-04T04:11:49.411Z,5.60
2017-12-04T04:12:53.019Z,5.60
2017-12-04T04:13:55.573Z,5.60
2017-12-04T04:14:58.968Z,5.60
2017-12-04T04:16:01.525Z,5.60
2017-12-04T04:17:04.913Z,5.60
2017-12-04T04:18:08.200Z,5.60
2017-12-04T04:19:11.376Z,5.60
2017-12-04T04:20:14.704Z,5.60
2017-12-04T04:21:17.241Z,5.60
2017-12-04T04:22:20.133Z,5.60
2017-12-04T04:23:22.675Z,5.60
2017-12-04T04:24:25.458Z,5.60
2017-12-04T04:25:27.991Z,5.60
2017-12-04T04:26:30.813Z,5.60
2017-12-04T04:27:33.388Z,5.60
2017-12-04T04:28:36.125Z,5.60
2017-12-04T04:29:38.682Z,5.60
2017-12-04T04:30:42.112Z,5.60
2017-12-04T04:31:44.650Z,5.60
2017-12-04T04:32:48.328Z,5.60
2017-12-04T04:33:51.660Z,5.60
2017-12-04T04:34:54.276Z,5.60
2017-12-04T04:35:57.560Z,5.60
2017-12-04T04:37:01.157Z,5.60
2017-12-04T04:38:03.723Z,5.60
2017-12-04T04:39:07.114Z,5.50
2017-12-04T04:40:10.501Z,5.50
2017-12-04T04:41:13.078Z,5.50
2017-12-04T04:42:15.596Z,5.50
2017-12-04T04:43:19.014Z,5.50
2017-12-04T04:44:22.323Z,5.60
2017-12-04T04:45:24.970Z,5.50
2017-12-04T04:46:28.301Z,5.50
2017-12-04T04:47:30.920Z,5.50
2017-12-04T04:48:34.229Z,5.60
2017-12-04T04:49:38.338Z,5.60
2017-12-04T04:50:40.882Z,5.60
2017-12-04T04:51:43.441Z,5.50
2017-12-04T04:52:46.833Z,5.50
2017-12-04T04:53:49.411Z,5.50
2017-12-04T04:54:51.958Z,5.50
2017-12-04T04:55:55.355Z,5.50
2017-12-04T04:56:57.905Z,5.50
2017-12-04T04:58:01.336Z,5.50
2017-12-04T04:59:03.886Z,5.50
2017-12-04T05:00:06.641Z,5.50
2017-12-04T05:01:09.238Z,5.50
2017-12-04T05:02:12.940Z,5.50
2017-12-04T05:03:15.519Z,5.50
2017-12-04T05:04:18.279Z,5.50
2017-12-04T05:05:20.809Z,5.50
2017-12-04T05:06:23.721Z,5.50
2017-12-04T05:07:26.283Z,5.60
2017-12-04T05:08:28.906Z,5.50
2017-12-04T05:09:32.256Z,5.60
2017-12-04T05:10:34.887Z,5.60
2017-12-04T05:11:37.439Z,5.60
2017-12-04T05:12:40.885Z,5.60
2017-12-04T05:13:43.492Z,5.60
2017-12-04T05:14:46.569Z,5.60
2017-12-04T05:15:49.880Z,5.70
2017-12-04T05:16:52.756Z,5.70
2017-12-04T05:17:55.346Z,5.70
2017-12-04T05:18:58.118Z,5.70
2017-12-04T05:20:00.675Z,5.70
2017-12-04T05:21:03.455Z,5.70
2017-12-04T05:22:06.026Z,5.70
2017-12-04T05:23:08.786Z,5.70
2017-12-04T05:24:11.339Z,5.70
2017-12-04T05:25:14.125Z,5.70
2017-12-04T05:26:16.695Z,5.70
2017-12-04T05:27:20.877Z,5.70
2017-12-04T05:28:23.473Z,5.70
2017-12-04T05:29:26.310Z,5.70
2017-12-04T05:30:28.986Z,5.80
2017-12-04T05:31:31.757Z,5.70
2017-12-04T05:32:34.329Z,5.80
2017-12-04T05:33:37.021Z,5.80
2017-12-04T05:34:39.577Z,5.80
2017-12-04T05:35:42.328Z,5.80
2017-12-04T05:36:44.875Z,5.80
2017-12-04T05:37:47.649Z,5.80
2017-12-04T05:38:51.145Z,5.80
2017-12-04T05:39:54.009Z,5.70
2017-12-04T05:40:57.317Z,5.70
2017-12-04T05:41:59.894Z,5.70
2017-12-04T05:43:02.432Z,5.80
2017-12-04T05:44:07.072Z,5.80
2017-12-04T05:45:09.756Z,5.70
2017-12-04T05:46:12.399Z,5.70
2017-12-04T05:47:14.929Z,5.80
2017-12-04T05:48:18.336Z,5.70
2017-12-04T05:49:21.654Z,5.80
2017-12-04T05:50:24.416Z,5.80
2017-12-04T05:51:26.952Z,5.80
2017-12-04T05:52:30.555Z,5.80
2017-12-04T05:53:33.081Z,5.80
2017-12-04T05:54:35.930Z,5.80
2017-12-04T05:55:38.589Z,5.80
2017-12-04T05:56:41.304Z,5.80
2017-12-04T05:57:44.638Z,5.80
2017-12-04T05:58:47.194Z,5.80
2017-12-04T05:59:49.729Z,5.80
2017-12-04T06:00:53.171Z,5.90
2017-12-04T06:01:55.733Z,5.80
2017-12-04T06:02:59.398Z,5.90
2017-12-04T06:04:01.946Z,5.90
2017-12-04T06:05:05.689Z,5.90
2017-12-04T06:06:08.252Z,5.90
2017-12-04T06:07:11.045Z,5.90
2017-12-04T06:08:13.603Z,5.90
2017-12-04T06:09:16.333Z,5.90
2017-12-04T06:10:19.653Z,5.90
2017-12-04T06:11:22.315Z,5.80
2017-12-04T06:12:24.875Z,5.80
2017-12-04T06:13:27.625Z,5.90
2017-12-04T06:14:30.921Z,5.90
2017-12-04T06:15:33.593Z,5.90
2017-12-04T06:16:36.172Z,5.90
2017-12-04T06:17:40.307Z,5.90
2017-12-04T06:18:42.861Z,5.90
2017-12-04T06:19:46.400Z,5.90
2017-12-04T06:20:49.466Z,5.90
2017-12-04T06:21:52.986Z,5.90
2017-12-04T06:22:55.634Z,5.90
2017-12-04T06:23:59.293Z,5.90
2017-12-04T06:25:01.845Z,5.90
2017-12-04T06:26:04.748Z,5.90
2017-12-04T06:27:08.806Z,5.90
2017-12-04T06:28:11.492Z,5.90
2017-12-04T06:29:14.253Z,5.90
2017-12-04T06:30:17.092Z,5.90
2017-12-04T06:31:20.395Z,5.90
2017-12-04T06:32:23.033Z,5.90
2017-12-04T06:33:26.340Z,5.90
2017-12-04T06:34:29.036Z,5.90
2017-12-04T06:35:31.579Z,5.90
2017-12-04T06:36:34.362Z,5.90
2017-12-04T06:37:36.948Z,6.00
2017-12-04T06:38:39.520Z,5.90
2017-12-04T06:39:42.108Z,5.90
2017-12-04T06:40:44.729Z,5.90
2017-12-04T06:41:47.286Z,5.90
2017-12-04T06:42:50.667Z,6.00
2017-12-04T06:43:54.176Z,6.00
2017-12-04T06:44:56.949Z,5.90
2017-12-04T06:45:59.501Z,5.90
2017-12-04T06:47:02.261Z,6.00
2017-12-04T06:48:05.576Z,5.90
2017-12-04T06:49:08.243Z,5.90
2017-12-04T06:50:11.036Z,6.00
2017-12-04T06:51:14.009Z,6.00
2017-12-04T06:52:16.550Z,6.00
2017-12-04T06:53:19.219Z,6.00
2017-12-04T06:54:21.776Z,6.00
2017-12-04T06:55:24.548Z,6.00
2017-12-04T06:56:27.847Z,6.00
2017-12-04T06:57:30.518Z,6.00
2017-12-04T06:58:33.066Z,6.00
2017-12-04T06:59:35.914Z,6.00
2017-12-04T07:00:39.227Z,6.00
2017-12-04T07:01:41.894Z,6.00
2017-12-04T07:02:45.189Z,6.00
2017-12-04T07:03:47.742Z,6.00
2017-12-04T07:04:50.295Z,6.00
2017-12-04T07:05:53.700Z,6.00
2017-12-04T07:06:56.277Z,6.00
2017-12-04T07:07:59.069Z,6.00
2017-12-04T07:09:01.606Z,6.00
2017-12-04T07:10:04.375Z,6.00
2017-12-04T07:11:07.677Z,6.00
2017-12-04T07:12:10.505Z,6.00
2017-12-04T07:13:14.144Z,6.00
2017-12-04T07:14:16.915Z,6.00
2017-12-04T07:15:19.451Z,6.00
2017-12-04T07:16:22.860Z,6.00
2017-12-04T07:17:25.738Z,6.00
2017-12-04T07:18:29.424Z,6.10
2017-12-04T07:19:31.948Z,6.00
2017-12-04T07:20:34.767Z,6.00
2017-12-04T07:21:37.292Z,6.10
2017-12-04T07:22:41.605Z,6.10
2017-12-04T07:23:44.912Z,6.10
2017-12-04T07:24:47.581Z,6.10
2017-12-04T07:25:50.106Z,6.10
2017-12-04T07:26:52.899Z,6.10
2017-12-04T07:27:55.433Z,6.20
2017-12-04T07:28:58.259Z,6.10
2017-12-04T07:30:01.565Z,6.20
2017-12-04T07:31:04.193Z,6.20
2017-12-04T07:32:06.718Z,6.20
2017-12-04T07:33:10.613Z,6.20
2017-12-04T07:34:13.209Z,6.20
2017-12-04T07:35:16.052Z,6.20
2017-12-04T07:36:18.604Z,6.20
2017-12-04T07:37:21.132Z,6.20
2017-12-04T07:38:24.429Z,6.30
2017-12-04T07:39:28.333Z,6.30
2017-12-04T07:40:30.997Z,6.30
2017-12-04T07:41:34.306Z,6.30
2017-12-04T07:42:37.084Z,6.30
2017-12-04T07:43:39.627Z,6.30
2017-12-04T07:44:42.330Z,6.30
2017-12-04T07:45:44.892Z,6.30
2017-12-04T07:46:47.625Z,6.30
2017-12-04T07:47:51.199Z,6.30
2017-12-04T07:48:54.497Z,6.30
2017-12-04T07:49:57.798Z,6.30
2017-12-04T07:51:02.626Z,6.30
2017-12-04T07:52:05.152Z,6.30
2017-12-04T07:53:08.044Z,6.30
2017-12-04T07:54:12.681Z,6.30
2017-12-04T07:55:15.570Z,6.30
2017-12-04T07:56:18.942Z,6.30
2017-12-04T07:57:21.685Z,6.40
2017-12-04T07:58:24.991Z,6.40
2017-12-04T07:59:27.688Z,6.40
2017-12-04T08:00:30.210Z,6.40
2017-12-04T08:01:33.580Z,6.40
2017-12-04T08:02:36.078Z,6.40
2017-12-04T08:03:38.613Z,6.40
2017-12-04T08:04:41.920Z,6.40
2017-12-04T08:05:44.595Z,6.40
2017-12-04T08:06:47.191Z,6.40
2017-12-04T08:07:49.907Z,6.50
2017-12-04T08:08:53.205Z,6.50
2017-12-04T08:09:56.782Z,6.50
2017-12-04T08:11:00.204Z,6.50
2017-12-04T08:12:02.761Z,6.50
2017-12-04T08:13:05.293Z,6.60
2017-12-04T08:14:08.126Z,6.50
2017-12-04T08:15:10.907Z,6.60
2017-12-04T08:16:13.821Z,6.60
2017-12-04T08:17:17.287Z,6.60
2017-12-04T08:18:21.577Z,6.60
2017-12-04T08:19:24.120Z,6.60
2017-12-04T08:20:26.949Z,6.60
2017-12-04T08:21:29.556Z,6.60
2017-12-04T08:22:32.251Z,6.60
2017-12-04T08:23:34.816Z,6.70
2017-12-04T08:24:37.652Z,6.70
2017-12-04T08:25:40.257Z,6.70
2017-12-04T08:26:42.927Z,6.70
2017-12-04T08:27:45.488Z,6.70
2017-12-04T08:28:48.372Z,6.70
2017-12-04T08:29:50.924Z,6.70
2017-12-04T08:30:53.632Z,6.70
2017-12-04T08:31:56.168Z,6.70
2017-12-04T08:32:58.883Z,6.70
2017-12-04T08:34:01.451Z,6.70
2017-12-04T08:35:05.817Z,6.70
2017-12-04T08:36:08.725Z,6.70
2017-12-04T08:37:12.274Z,6.70
2017-12-04T08:38:15.030Z,6.70
2017-12-04T08:39:18.623Z,6.70
2017-12-04T08:40:21.169Z,6.70
2017-12-04T08:41:24.490Z,6.70
2017-12-04T08:42:27.055Z,6.70
2017-12-04T08:43:29.585Z,6.70
2017-12-04T08:44:32.275Z,6.70
2017-12-04T08:45:35.436Z,6.70
2017-12-04T08:46:37.968Z,6.70
2017-12-04T08:47:41.587Z,6.80
2017-12-04T08:48:45.126Z,6.80
2017-12-04T08:49:48.486Z,6.80
2017-12-04T08:50:51.035Z,6.90
2017-12-04T08:51:53.726Z,6.90
2017-12-04T08:52:56.354Z,6.90
2017-12-04T08:53:59.089Z,6.90
2017-12-04T08:55:01.661Z,6.90
2017-12-04T08:56:04.401Z,7.00
2017-12-04T08:57:07.686Z,7.00
2017-12-04T08:58:10.452Z,7.10
2017-12-04T08:59:13.433Z,7.10
2017-12-04T09:00:15.987Z,7.10
2017-12-04T09:01:18.577Z,7.10
2017-12-04T09:02:21.444Z,7.10
2017-12-04T09:03:24.000Z,7.10
2017-12-04T09:04:26.761Z,7.10
2017-12-04T09:05:29.509Z,7.10
2017-12-04T09:06:34.172Z,7.20
2017-12-04T09:07:36.716Z,7.20
2017-12-04T09:08:39.485Z,7.20
2017-12-04T09:09:42.794Z,7.20
2017-12-04T09:10:45.329Z,7.20
2017-12-04T09:11:48.633Z,7.30
2017-12-04T09:12:52.413Z,7.20
2017-12-04T09:13:55.722Z,7.30
2017-12-04T09:14:58.664Z,7.30
2017-12-04T09:16:01.221Z,7.30
2017-12-04T09:17:03.762Z,7.30
2017-12-04T09:18:06.418Z,7.30
2017-12-04T09:19:08.985Z,7.40
2017-12-04T09:20:11.767Z,7.40
2017-12-04T09:21:14.409Z,7.40
2017-12-04T09:22:17.059Z,7.40
2017-12-04T09:23:19.870Z,7.40
2017-12-04T09:24:22.439Z,7.40
2017-12-04T09:25:25.013Z,7.40
2017-12-04T09:26:27.546Z,7.40
2017-12-04T09:27:30.323Z,7.40
2017-12-04T09:28:32.849Z,7.50
2017-12-04T09:29:35.978Z,7.50
2017-12-04T09:30:39.447Z,7.50
2017-12-04T09:31:42.935Z,7.40
2017-12-04T09:32:45.603Z,7.40
2017-12-04T09:33:49.119Z,7.30
2017-12-04T09:34:51.934Z,7.30
2017-12-04T09:35:56.098Z,7.30
2017-12-04T09:36:59.065Z,7.30
2017-12-04T09:38:01.624Z,7.40
2017-12-04T09:39:04.405Z,7.40
2017-12-04T09:40:07.033Z,7.40
2017-12-04T09:41:09.844Z,7.50
2017-12-04T09:42:12.929Z,7.50
2017-12-04T09:43:15.529Z,7.60
2017-12-04T09:44:19.166Z,7.60
2017-12-04T09:45:23.216Z,7.60
2017-12-04T09:46:25.738Z,7.50
2017-12-04T09:47:29.032Z,7.50
2017-12-04T09:48:31.699Z,7.50
2017-12-04T09:49:34.291Z,7.50
2017-12-04T09:50:37.995Z,7.40
2017-12-04T09:51:40.512Z,7.40
2017-12-04T09:52:44.102Z,7.40
2017-12-04T09:53:48.923Z,7.30
2017-12-04T09:54:53.281Z,7.30
2017-12-04T09:55:55.936Z,7.30
2017-12-04T09:56:58.834Z,7.30
2017-12-04T09:58:01.372Z,7.30
2017-12-04T09:59:05.133Z,7.20
2017-12-04T10:00:08.466Z,7.20
2017-12-04T10:01:11.744Z,7.20
2017-12-04T10:02:14.594Z,7.20
2017-12-04T10:03:17.253Z,7.20
2017-12-04T10:04:20.729Z,7.20
2017-12-04T10:05:24.025Z,7.20
2017-12-04T10:06:27.508Z,7.30
2017-12-04T10:07:30.806Z,7.30
2017-12-04T10:08:33.349Z,7.30
2017-12-04T10:09:35.889Z,7.30
2017-12-04T10:10:38.518Z,7.40
2017-12-04T10:11:41.051Z,7.40
2017-12-04T10:12:43.888Z,7.40
2017-12-04T10:13:46.425Z,7.40
2017-12-04T10:14:49.202Z,7.30
2017-12-04T10:15:51.741Z,7.40
2017-12-04T10:16:55.166Z,7.40
2017-12-04T10:17:57.721Z,7.30
2017-12-04T10:19:00.935Z,7.50
2017-12-04T10:20:03.693Z,7.50
2017-12-04T10:21:06.489Z,7.60
2017-12-04T10:22:09.939Z,7.50
2017-12-04T10:23:13.029Z,7.50
2017-12-04T10:24:15.691Z,7.50
2017-12-04T10:25:18.329Z,7.60
2017-12-04T10:26:21.737Z,7.70
2017-12-04T10:27:24.800Z,7.70
2017-12-04T10:28:27.484Z,7.70
2017-12-04T10:29:30.342Z,7.80
2017-12-04T10:30:32.973Z,7.80
2017-12-04T10:31:36.699Z,7.90
2017-12-04T10:32:40.010Z,7.90
2017-12-04T10:33:42.809Z,7.90
2017-12-04T10:34:46.165Z,8.00
2017-12-04T10:35:49.033Z,8.00
2017-12-04T10:36:51.582Z,8.00
2017-12-04T10:37:54.275Z,8.00
2017-12-04T10:40:00.143Z,7.90
2017-12-04T10:41:03.005Z,7.80
2017-12-04T10:42:05.745Z,7.80
2017-12-04T10:43:10.491Z,7.90
2017-12-04T10:44:13.574Z,7.90
2017-12-04T10:45:16.284Z,7.90
2017-12-04T10:46:19.541Z,7.90
2017-12-04T10:47:24.095Z,7.90
2017-12-04T10:48:28.213Z,8.00
2017-12-04T10:49:31.239Z,7.90
2017-12-04T10:50:34.093Z,8.00
2017-12-04T10:51:36.677Z,8.00
2017-12-04T10:52:39.416Z,7.90
2017-12-04T10:53:43.018Z,8.00
2017-12-04T10:54:45.709Z,8.00
2017-12-04T10:55:48.237Z,7.90
2017-12-04T10:56:51.763Z,7.80
2017-12-04T10:57:54.315Z,7.80
2017-12-04T10:59:03.111Z,7.80
2017-12-04T11:00:05.652Z,7.70
2017-12-04T11:01:08.421Z,7.60
2017-12-04T11:02:11.950Z,7.60
2017-12-04T11:03:15.000Z,7.50
2017-12-04T11:04:18.442Z,7.40
2017-12-04T11:05:21.004Z,7.40
2017-12-04T11:06:23.644Z,7.40
2017-12-04T11:07:26.972Z,7.30
2017-12-04T11:08:29.622Z,7.30
2017-12-04T11:09:32.569Z,7.30
2017-12-04T11:10:35.879Z,7.30
2017-12-04T11:11:38.706Z,7.30
2017-12-04T11:12:41.292Z,7.40
2017-12-04T11:13:45.124Z,7.50
2017-12-04T11:14:47.645Z,7.50
2017-12-04T11:15:51.150Z,7.60
2017-12-04T11:16:53.696Z,7.50
2017-12-04T11:17:57.082Z,7.60
2017-12-04T11:18:59.636Z,7.60
2017-12-04T11:20:02.329Z,7.70
2017-12-04T11:22:34.101Z,7.70
2017-12-04T11:23:36.666Z,7.80
2017-12-04T11:24:39.430Z,7.90
2017-12-04T11:25:43.143Z,7.90
2017-12-04T11:26:45.869Z,7.90
2017-12-04T11:27:49.106Z,8.00
2017-12-04T11:28:52.275Z,8.00
2017-12-04T11:29:54.865Z,8.00
2017-12-04T11:30:57.678Z,8.10
2017-12-04T11:32:00.221Z,8.10
2017-12-04T11:33:03.058Z,8.20
2017-12-04T11:34:05.609Z,8.20
2017-12-04T11:35:08.314Z,8.20
2017-12-04T11:36:10.996Z,8.20
2017-12-04T11:37:14.026Z,8.20
2017-12-04T11:38:16.627Z,8.20
2017-12-04T11:39:19.293Z,8.10
2017-12-04T11:40:22.366Z,8.10
2017-12-04T11:44:30.688Z,8.30
2017-12-04T11:45:33.531Z,8.30
2017-12-04T11:46:37.066Z,8.30
2017-12-04T11:47:39.627Z,8.30
2017-12-04T11:48:42.185Z,8.40
2017-12-04T11:49:44.763Z,8.40
2017-12-04T11:50:47.511Z,8.50
2017-12-04T11:51:50.217Z,8.60
2017-12-04T11:52:52.782Z,8.50
2017-12-04T11:53:55.449Z,8.50
2017-12-04T11:54:58.251Z,8.50
2017-12-04T11:56:00.815Z,8.50
2017-12-04T11:57:05.173Z,8.40
2017-12-04T11:58:07.807Z,8.40
2017-12-04T11:59:11.532Z,8.50
2017-12-04T12:00:14.402Z,8.50
2017-12-04T12:01:17.280Z,8.50
2017-12-04T12:02:19.855Z,8.50
2017-12-04T12:03:22.522Z,8.50
2017-12-04T12:04:25.180Z,8.40
2017-12-04T12:05:27.805Z,8.50
2017-12-04T12:06:30.389Z,8.40
2017-12-04T12:07:33.831Z,8.30
2017-12-04T12:08:36.378Z,8.30
2017-12-04T12:09:39.143Z,8.40
2017-12-04T12:10:41.715Z,8.40
2017-12-04T12:11:44.586Z,8.40
2017-12-04T12:12:47.268Z,8.50
2017-12-04T12:13:49.971Z,8.60
2017-12-04T12:14:53.154Z,8.50
2017-12-04T12:15:55.710Z,8.60
2017-12-04T12:16:58.492Z,8.60
2017-12-04T12:18:01.119Z,8.60
2017-12-04T12:19:04.208Z,8.60
2017-12-04T12:20:06.778Z,8.60
2017-12-04T12:21:10.154Z,8.60
2017-12-04T12:22:13.228Z,8.60
2017-12-04T12:23:17.961Z,8.60
2017-12-04T12:24:20.502Z,8.50
2017-12-04T12:25:23.212Z,8.50
2017-12-04T12:26:26.589Z,8.50
2017-12-04T12:27:30.370Z,8.60
2017-12-04T12:28:32.907Z,8.50
2017-12-04T12:29:36.359Z,8.40
2017-12-04T12:30:39.077Z,8.40
2017-12-04T12:31:41.698Z,8.40
2017-12-04T12:32:44.256Z,8.30
2017-12-04T12:33:47.147Z,8.30
2017-12-04T12:34:51.485Z,8.20
2017-12-04T12:35:54.183Z,8.20
2017-12-04T12:36:57.159Z,8.20
2017-12-04T12:38:00.834Z,8.20
2017-12-04T12:39:04.335Z,8.20
2017-12-04T12:40:07.119Z,8.20
2017-12-04T12:41:09.698Z,8.20
2017-12-04T12:42:12.674Z,8.30
2017-12-04T12:43:15.427Z,8.20
2017-12-04T12:44:18.137Z,8.20
2017-12-04T12:45:20.724Z,8.30
2017-12-04T12:46:24.228Z,8.30
2017-12-04T12:47:27.744Z,8.20
2017-12-04T12:48:30.612Z,8.20
2017-12-04T12:49:33.271Z,8.20
2017-12-04T12:50:35.931Z,8.20
2017-12-04T12:51:38.486Z,8.20
2017-12-04T12:52:43.003Z,8.10
2017-12-04T12:53:46.334Z,8.10
2017-12-04T12:54:49.288Z,8.10
2017-12-04T12:55:51.823Z,8.10
2017-12-04T12:56:54.912Z,8.10
2017-12-04T12:57:58.464Z,8.10
2017-12-04T12:59:01.240Z,8.10
2017-12-04T13:00:05.282Z,8.10
2017-12-04T13:01:08.073Z,8.10
2017-12-04T13:02:10.818Z,8.10
2017-12-04T13:03:14.948Z,8.00
2017-12-04T13:04:17.650Z,8.00
2017-12-04T13:05:20.332Z,8.00
2017-12-04T13:06:22.897Z,8.00
2017-12-04T13:07:26.894Z,8.00
2017-12-04T13:08:30.197Z,8.00
2017-12-04T13:09:32.910Z,8.00
2017-12-04T13:10:35.869Z,8.00
2017-12-04T13:11:38.620Z,8.00
2017-12-04T13:12:41.912Z,8.10
2017-12-04T13:13:45.342Z,8.10
2017-12-04T13:14:47.920Z,8.10
2017-12-04T13:15:50.478Z,8.10
2017-12-04T13:16:53.045Z,8.20
2017-12-04T13:17:55.794Z,8.30
2017-12-04T13:18:58.352Z,8.30
2017-12-04T13:20:01.221Z,8.30
2017-12-04T13:21:04.947Z,8.30
2017-12-04T13:22:07.633Z,8.40
2017-12-04T13:23:12.805Z,8.30
2017-12-04T13:24:17.120Z,8.40
2017-12-04T13:25:19.914Z,8.40
2017-12-04T13:26:22.472Z,8.40
2017-12-04T13:27:26.710Z,8.40
2017-12-04T13:28:29.497Z,8.30
2017-12-04T13:29:32.118Z,8.30
2017-12-04T13:30:34.671Z,8.30
2017-12-04T13:31:37.291Z,8.30
2017-12-04T13:32:51.978Z,8.30
2017-12-04T13:34:07.316Z,8.20
2017-12-04T13:35:21.937Z,8.20
2017-12-04T13:36:38.850Z,8.20
2017-12-04T13:37:41.445Z,8.20
2017-12-04T13:38:44.197Z,8.20
2017-12-04T13:39:48.279Z,8.20
2017-12-04T13:40:51.091Z,8.30
2017-12-04T13:41:53.812Z,8.30
2017-12-04T13:42:56.383Z,8.30
2017-12-04T13:43:59.021Z,8.30
2017-12-04T13:45:03.536Z,8.30
2017-12-04T13:46:06.077Z,8.30
2017-12-04T13:47:10.894Z,8.40
2017-12-04T13:48:15.972Z,8.30
2017-12-04T13:49:18.559Z,8.30
2017-12-04T13:50:21.165Z,8.40
2017-12-04T13:51:23.916Z,8.40
2017-12-04T13:52:26.493Z,8.40
2017-12-04T13:53:29.206Z,8.40
2017-12-04T13:54:31.788Z,8.20
2017-12-04T13:55:34.718Z,8.20
2017-12-04T13:56:38.046Z,8.20
2017-12-04T13:57:40.867Z,8.20
2017-12-04T13:58:43.429Z,8.20
2017-12-04T13:59:46.185Z,8.20
2017-12-04T14:00:48.744Z,8.10
2017-12-04T14:01:51.568Z,8.10
2017-12-04T14:02:54.880Z,8.10
2017-12-04T14:03:57.447Z,8.00
2017-12-04T14:05:00.020Z,8.10